Time;durP1;ratioP1;P1;durP2;ratioP2;P2;SDS_P1;SDS_P2;PMS_P1;PMS_P2;Temp;Humidity;BMP_temperature;BMP_pressure;BME280_temperature;BME280_humidity;BME280_pressure;Samples;Min_cycle;Max_cycle;Signal;HPM_P1;HPM_P2
2021/08/02 00:01:35;;;;;;;13.57;8.13;;;17.20;99.90;;;;;;5095107;28;20472;-85
2021/08/02 00:04:04;;;;;;;12.60;8.80;;;17.20;99.90;;;;;;5076409;28;20452;-83
2021/08/02 00:06:46;;;;;;;13.57;7.33;;;17.10;99.90;;;;;;5078520;28;20552;-86
2021/08/02 00:09:16;;;;;;;14.10;7.87;;;17.10;99.90;;;;;;5092445;28;20438;-85
2021/08/02 00:11:50;;;;;;;12.90;6.97;;;17.10;99.90;;;;;;5100227;28;20558;-85
2021/08/02 00:14:18;;;;;;;11.40;7.03;;;17.10;99.90;;;;;;5101029;28;20912;-86
2021/08/02 00:16:47;;;;;;;12.13;6.57;;;17.10;99.90;;;;;;5101619;28;20442;-84
2021/08/02 00:19:13;;;;;;;12.23;7.00;;;17.10;99.90;;;;;;5100966;28;20454;-83
2021/08/02 00:21:41;;;;;;;10.47;5.50;;;17.10;99.90;;;;;;5099391;28;20849;-83
2021/08/02 00:24:08;;;;;;;11.57;6.70;;;17.10;99.90;;;;;;5081227;28;20460;-83
2021/08/02 00:26:36;;;;;;;12.23;7.07;;;17.10;99.90;;;;;;5080033;28;20461;-85
2021/08/02 00:29:03;;;;;;;12.40;7.27;;;17.10;99.90;;;;;;5080795;28;20660;-84
2021/08/02 00:31:30;;;;;;;13.00;8.50;;;17.10;99.90;;;;;;5098763;28;20495;-85
2021/08/02 00:33:59;;;;;;;13.20;7.93;;;17.10;99.90;;;;;;5099393;28;20439;-82
2021/08/02 00:36:34;;;;;;;13.00;7.90;;;17.10;99.90;;;;;;5098778;28;20966;-83
2021/08/02 00:39:05;;;;;;;15.53;8.20;;;17.10;99.90;;;;;;5099968;28;20536;-84
2021/08/02 00:42:05;;;;;;;14.10;7.50;;;17.10;99.90;;;;;;5098689;28;20466;-84
2021/08/02 00:45:02;;;;;;;12.20;6.70;;;17.10;99.90;;;;;;5088711;28;20449;-86
2021/08/02 00:47:33;;;;;;;13.07;7.53;;;17.10;99.90;;;;;;5080951;28;20463;-85
2021/08/02 00:50:06;;;;;;;11.50;6.20;;;17.10;99.90;;;;;;5097696;28;20453;-85
2021/08/02 00:52:34;;;;;;;15.00;7.80;;;17.00;99.90;;;;;;5090204;28;20922;-85
2021/08/02 00:55:04;;;;;;;11.13;6.23;;;16.90;99.90;;;;;;5080121;28;21249;-82
2021/08/02 00:57:36;;;;;;;11.10;6.13;;;16.90;99.90;;;;;;5095260;28;20450;-83
2021/08/02 01:00:07;;;;;;;14.30;6.77;;;16.90;99.90;;;;;;5091915;28;20456;-83
2021/08/02 01:02:40;;;;;;;10.57;5.47;;;16.90;99.90;;;;;;5089168;28;20471;-83
2021/08/02 01:05:12;;;;;;;10.27;5.40;;;16.80;99.90;;;;;;5091225;28;20545;-84
2021/08/02 01:07:45;;;;;;;11.60;5.20;;;16.80;99.90;;;;;;5098229;28;20845;-83
2021/08/02 01:10:14;;;;;;;11.60;5.23;;;16.70;99.90;;;;;;5097509;28;20967;-82
2021/08/02 01:12:46;;;;;;;10.30;5.13;;;16.70;99.90;;;;;;5097571;28;20480;-84
2021/08/02 01:15:14;;;;;;;10.70;4.87;;;16.60;99.90;;;;;;5097694;28;21177;-83
2021/08/02 01:17:41;;;;;;;9.30;4.60;;;16.50;99.90;;;;;;5097800;28;20445;-83
2021/08/02 01:20:12;;;;;;;9.40;3.40;;;16.50;99.90;;;;;;5096897;28;20485;-83
2021/08/02 01:22:42;;;;;;;12.03;4.60;;;16.50;99.90;;;;;;5097269;28;20492;-83
2021/08/02 01:25:56;;;;;;;9.60;3.77;;;16.40;99.90;;;;;;5098368;28;20456;-83
2021/08/02 01:28:56;;;;;;;10.87;4.77;;;16.30;99.90;;;;;;5098108;28;20469;-82
2021/08/02 01:31:24;;;;;;;10.20;4.87;;;16.30;99.90;;;;;;5080160;28;20500;-83
2021/08/02 01:33:51;;;;;;;10.53;5.27;;;16.20;99.90;;;;;;5079266;28;20469;-83
2021/08/02 01:36:17;;;;;;;10.70;5.27;;;16.20;99.90;;;;;;5077564;28;21005;-83
2021/08/02 01:38:46;;;;;;;10.43;4.30;;;16.10;99.90;;;;;;5076661;28;20533;-84
2021/08/02 01:41:13;;;;;;;10.53;5.07;;;16.10;99.90;;;;;;5077428;28;20502;-83
2021/08/02 01:43:39;;;;;;;9.70;4.40;;;16.10;99.90;;;;;;5093746;28;20457;-82
2021/08/02 01:46:15;;;;;;;10.90;4.77;;;16.10;99.90;;;;;;5097641;28;20449;-84
2021/08/02 01:48:48;;;;;;;10.63;4.17;;;16.10;99.90;;;;;;5097424;28;20960;-82
2021/08/02 01:51:22;;;;;;;11.40;4.17;;;16.10;99.90;;;;;;5097799;28;20577;-83
2021/08/02 01:53:56;;;;;;;8.30;3.07;;;16.00;99.90;;;;;;5080316;28;21024;-83
2021/08/02 01:56:25;;;;;;;9.60;3.23;;;16.00;99.90;;;;;;5087506;28;20497;-82
2021/08/02 01:58:59;;;;;;;9.23;3.70;;;16.00;99.90;;;;;;5096851;28;20450;-82
2021/08/02 02:01:26;;;;;;;10.70;3.40;;;15.90;99.90;;;;;;5097379;28;20472;-83
2021/08/02 02:03:54;;;;;;;11.00;3.80;;;15.90;99.90;;;;;;5088610;28;20468;-82
2021/08/02 02:06:27;;;;;;;13.57;4.37;;;15.90;99.90;;;;;;5097286;28;20446;-86
2021/08/02 02:09:01;;;;;;;9.90;3.20;;;15.80;99.90;;;;;;5096662;28;20450;-83
2021/08/02 02:11:30;;;;;;;9.50;3.97;;;15.80;99.90;;;;;;5096417;28;20497;-84
2021/08/02 02:14:00;;;;;;;9.47;3.07;;;15.80;99.90;;;;;;5077392;28;20456;-82
2021/08/02 02:16:30;;;;;;;9.53;2.83;;;15.70;99.90;;;;;;5075736;28;20460;-83
2021/08/02 02:19:00;;;;;;;9.77;3.70;;;15.70;99.90;;;;;;5075180;28;20460;-82
2021/08/02 02:21:28;;;;;;;9.20;3.33;;;15.70;99.90;;;;;;5074942;28;20467;-83
2021/08/02 02:23:58;;;;;;;8.90;3.10;;;15.70;99.90;;;;;;5093152;28;20452;-83
2021/08/02 02:26:29;;;;;;;8.87;3.10;;;15.70;99.90;;;;;;5094895;28;20455;-82
2021/08/02 02:28:57;;;;;;;9.23;3.10;;;15.70;99.90;;;;;;5094592;28;20556;-81
2021/08/02 02:31:25;;;;;;;9.50;3.43;;;15.70;99.90;;;;;;5094761;28;20881;-83
2021/08/02 02:33:54;;;;;;;8.37;3.13;;;15.60;99.90;;;;;;5093729;28;20459;-82
2021/08/02 02:36:22;;;;;;;9.23;2.73;;;15.70;99.90;;;;;;5095288;28;20453;-83
2021/08/02 02:38:50;;;;;;;10.17;3.37;;;15.70;99.90;;;;;;5094660;28;20461;-86
2021/08/02 02:41:19;;;;;;;9.90;3.57;;;15.70;99.90;;;;;;5094381;28;20470;-83
2021/08/02 02:43:48;;;;;;;9.73;3.43;;;15.70;99.90;;;;;;5093756;28;20454;-83
2021/08/02 02:46:16;;;;;;;10.70;3.50;;;15.60;99.90;;;;;;5094562;28;20454;-84
2021/08/02 02:48:44;;;;;;;8.73;3.20;;;15.70;99.90;;;;;;5094018;28;20943;-83
2021/08/02 02:51:12;;;;;;;8.10;3.57;;;15.70;99.90;;;;;;5094015;28;20499;-82
2021/08/02 02:53:40;;;;;;;9.80;3.60;;;15.70;99.90;;;;;;5094182;28;20456;-82
2021/08/02 02:56:09;;;;;;;9.03;3.50;;;15.70;99.90;;;;;;5093713;28;20453;-82
2021/08/02 02:58:37;;;;;;;8.60;4.20;;;15.70;99.90;;;;;;5093130;28;20463;-84
2021/08/02 03:01:05;;;;;;;9.43;3.50;;;15.70;99.90;;;;;;5092904;28;20470;-84
2021/08/02 03:03:34;;;;;;;9.37;3.70;;;15.70;99.90;;;;;;5092183;28;20454;-85
2021/08/02 03:06:02;;;;;;;8.40;3.13;;;15.70;99.90;;;;;;5086305;28;20955;-85
2021/08/02 03:08:29;;;;;;;8.77;4.00;;;15.70;99.90;;;;;;5081772;28;20457;-84
2021/08/02 03:10:57;;;;;;;10.40;5.40;;;15.70;99.90;;;;;;5078142;28;20948;-86
2021/08/02 03:13:24;;;;;;;10.60;4.43;;;15.70;99.90;;;;;;5097429;28;20458;-83
2021/08/02 03:15:52;;;;;;;11.10;4.20;;;15.70;99.90;;;;;;5114270;28;20470;-88
2021/08/02 03:18:19;;;;;;;10.60;4.30;;;15.70;99.90;;;;;;5117789;28;20497;-87
2021/08/02 03:20:46;;;;;;;9.77;4.13;;;15.70;99.90;;;;;;5102492;28;20491;-86
2021/08/02 03:23:18;;;;;;;9.97;3.40;;;15.70;99.90;;;;;;5089535;28;20910;-85
2021/08/02 03:25:49;;;;;;;10.00;4.50;;;15.70;99.90;;;;;;5081197;28;20916;-87
2021/08/02 03:28:22;;;;;;;10.03;4.37;;;15.80;99.90;;;;;;5080728;28;20438;-88
2021/08/02 03:30:55;;;;;;;10.80;4.30;;;15.80;99.90;;;;;;5079781;28;20464;-86
2021/08/02 03:33:26;;;;;;;10.70;4.23;;;15.70;99.90;;;;;;5092517;28;20456;-86
2021/08/02 03:35:55;;;;;;;12.20;4.93;;;15.70;99.90;;;;;;5100618;28;20500;-86
2021/08/02 03:38:23;;;;;;;10.00;3.87;;;15.60;99.90;;;;;;5099546;28;20455;-84
2021/08/02 03:40:52;;;;;;;12.80;4.70;;;15.60;99.90;;;;;;5099238;28;20452;-83
2021/08/02 03:43:19;;;;;;;10.10;3.90;;;15.60;99.90;;;;;;5087164;28;20529;-83
2021/08/02 03:45:47;;;;;;;10.90;4.90;;;15.60;99.90;;;;;;5080466;28;20439;-85
2021/08/02 03:48:15;;;;;;;10.23;4.20;;;15.60;99.90;;;;;;5079851;28;20502;-84
2021/08/02 03:50:42;;;;;;;8.67;3.70;;;15.60;99.90;;;;;;5079623;28;20463;-85
2021/08/02 03:53:09;;;;;;;11.83;4.73;;;15.60;99.90;;;;;;5088804;28;20483;-86
2021/08/02 03:55:36;;;;;;;11.73;4.40;;;15.60;99.90;;;;;;5099398;28;20445;-85
2021/08/02 03:58:06;;;;;;;10.77;4.03;;;15.60;99.90;;;;;;5099432;28;20452;-86
2021/08/02 04:00:33;;;;;;;9.50;3.20;;;15.60;99.90;;;;;;5099772;28;20438;-85
2021/08/02 04:02:59;;;;;;;9.50;4.17;;;15.60;99.90;;;;;;5083282;28;20472;-85
2021/08/02 04:05:28;;;;;;;9.80;3.57;;;15.60;99.90;;;;;;5078178;28;20462;-85
2021/08/02 04:07:55;;;;;;;8.30;3.30;;;15.60;99.90;;;;;;5076404;28;20453;-85
2021/08/02 04:10:22;;;;;;;10.57;4.00;;;15.60;99.90;;;;;;5076284;28;20816;-85
2021/08/02 04:12:49;;;;;;;8.80;4.00;;;15.60;99.90;;;;;;5076224;28;20495;-85
2021/08/02 04:15:15;;;;;;;9.53;3.70;;;15.60;99.90;;;;;;5076012;28;20450;-85
2021/08/02 04:17:42;;;;;;;12.10;4.20;;;15.60;99.90;;;;;;5075544;28;20450;-86
2021/08/02 04:20:10;;;;;;;12.13;5.13;;;15.60;99.90;;;;;;5076709;28;20552;-86
2021/08/02 04:22:39;;;;;;;10.00;4.50;;;15.60;99.90;;;;;;5097705;28;20480;-86
2021/08/02 04:25:07;;;;;;;15.53;5.40;;;15.60;99.90;;;;;;5082561;28;20897;-85
2021/08/02 04:27:33;;;;;;;12.97;5.40;;;15.60;99.90;;;;;;5076928;28;20453;-85
2021/08/02 04:30:00;;;;;;;12.17;5.40;;;15.60;99.90;;;;;;5077749;28;20453;-85
2021/08/02 04:32:27;;;;;;;11.60;5.30;;;15.60;99.90;;;;;;5092233;28;20929;-83
2021/08/02 04:34:54;;;;;;;11.57;5.37;;;15.70;99.90;;;;;;5096182;28;20449;-83
2021/08/02 04:37:21;;;;;;;13.80;6.50;;;15.70;99.90;;;;;;5104764;28;20448;-86
2021/08/02 04:39:49;;;;;;;10.60;5.13;;;15.70;99.90;;;;;;5118077;28;20449;-84
2021/08/02 04:42:16;;;;;;;13.50;6.47;;;15.70;99.90;;;;;;5100492;28;20853;-84
2021/08/02 04:44:42;;;;;;;12.20;5.33;;;15.70;99.90;;;;;;5097720;28;20472;-84
2021/08/02 04:47:09;;;;;;;11.73;4.70;;;15.70;99.90;;;;;;5095979;28;20454;-84
2021/08/02 04:49:36;;;;;;;12.53;6.90;;;15.70;99.90;;;;;;5094752;28;20455;-84
2021/08/02 04:52:03;;;;;;;11.80;4.93;;;15.70;99.90;;;;;;5093192;28;20581;-84
2021/08/02 04:54:30;;;;;;;10.60;4.80;;;15.70;99.90;;;;;;5099773;28;20444;-83
2021/08/02 04:56:58;;;;;;;11.90;4.70;;;15.80;99.90;;;;;;5099754;28;20970;-84
2021/08/02 04:59:25;;;;;;;11.27;5.17;;;15.80;99.90;;;;;;5098986;28;20474;-84
2021/08/02 05:01:51;;;;;;;9.60;4.50;;;15.80;99.90;;;;;;5087570;28;20470;-85
2021/08/02 05:04:18;;;;;;;11.10;5.10;;;15.80;99.90;;;;;;5079300;28;20456;-84
2021/08/02 05:06:45;;;;;;;12.30;5.33;;;15.80;99.90;;;;;;5079049;28;20464;-85
2021/08/02 05:09:12;;;;;;;10.70;5.67;;;15.80;99.90;;;;;;5078715;28;20457;-85
2021/08/02 05:11:38;;;;;;;13.53;7.70;;;15.80;99.90;;;;;;5088422;28;20803;-84
2021/08/02 05:14:07;;;;;;;14.97;6.60;;;15.90;99.90;;;;;;5099286;28;20464;-83
2021/08/02 05:16:33;;;;;;;15.10;8.47;;;15.90;99.90;;;;;;5099229;28;20453;-85
2021/08/02 05:19:00;;;;;;;12.10;6.53;;;15.90;99.90;;;;;;5098721;28;20814;-84
2021/08/02 05:21:27;;;;;;;14.03;6.37;;;15.90;99.90;;;;;;5092319;28;20882;-84
2021/08/02 05:23:54;;;;;;;13.53;6.40;;;15.90;99.90;;;;;;5102445;28;20525;-84
2021/08/02 05:26:21;;;;;;;12.87;6.10;;;15.90;99.90;;;;;;5099617;28;20452;-84
2021/08/02 05:28:48;;;;;;;11.20;6.57;;;15.90;99.90;;;;;;5098751;28;20871;-85
2021/08/02 05:33:44;;;;;;;15.57;6.30;;;15.90;99.90;;;;;;5055839;28;20485;-82
2021/08/02 05:36:10;;;;;;;13.47;6.20;;;16.00;99.90;;;;;;5063164;28;20473;-82
2021/08/02 05:38:39;;;;;;;12.50;6.00;;;16.00;99.90;;;;;;5062205;28;20519;-82
2021/08/02 05:41:06;;;;;;;12.30;5.67;;;16.00;99.90;;;;;;5063200;28;20455;-85
2021/08/02 05:43:33;;;;;;;15.20;5.93;;;16.10;99.90;;;;;;5060973;28;20562;-82
2021/08/02 05:46:01;;;;;;;15.60;6.30;;;16.00;99.90;;;;;;5060866;28;20457;-82
2021/08/02 05:48:27;;;;;;;15.17;8.00;;;16.10;99.90;;;;;;5060919;28;20463;-82
2021/08/02 05:50:56;;;;;;;14.10;6.87;;;16.20;99.90;;;;;;5059856;28;20456;-82
2021/08/02 05:53:22;;;;;;;15.13;7.40;;;16.20;99.90;;;;;;5076808;28;20512;-82
2021/08/02 05:55:49;;;;;;;12.30;6.97;;;16.20;99.90;;;;;;5078257;28;20451;-82
2021/08/02 05:58:17;;;;;;;16.10;6.93;;;16.20;99.90;;;;;;5078387;28;20478;-83
2021/08/02 06:00:43;;;;;;;13.20;6.10;;;16.20;99.90;;;;;;5079380;28;20446;-82
2021/08/02 06:03:10;;;;;;;12.13;5.70;;;16.10;99.90;;;;;;5077290;28;20999;-82
2021/08/02 06:05:37;;;;;;;11.57;6.63;;;16.20;99.90;;;;;;5075386;28;20458;-83
2021/08/02 06:08:05;;;;;;;11.47;5.20;;;16.10;99.90;;;;;;5075235;28;20456;-82
2021/08/02 06:10:32;;;;;;;36.43;8.10;;;16.20;99.90;;;;;;5074199;28;20443;-82
2021/08/02 06:12:59;;;;;;;11.90;5.80;;;16.10;99.90;;;;;;5056003;28;20496;-81
2021/08/02 06:15:26;;;;;;;11.80;5.40;;;16.20;99.90;;;;;;5054879;28;20452;-82
2021/08/02 06:17:53;;;;;;;12.83;5.80;;;16.20;99.90;;;;;;5055107;28;20455;-82
2021/08/02 06:20:20;;;;;;;15.63;6.53;;;16.20;99.90;;;;;;5055684;28;20547;-83
2021/08/02 06:22:46;;;;;;;12.53;5.30;;;16.30;99.90;;;;;;5074775;28;20585;-82
2021/08/02 06:25:14;;;;;;;11.70;4.90;;;16.40;99.90;;;;;;5076091;28;20459;-82
2021/08/02 06:27:41;;;;;;;11.97;5.47;;;16.40;99.90;;;;;;5076381;28;20972;-82
2021/08/02 06:30:09;;;;;;;10.57;4.80;;;16.50;99.90;;;;;;5074932;28;20474;-83
2021/08/02 06:32:38;;;;;;;11.63;5.00;;;16.60;99.90;;;;;;5070473;28;20487;-82
2021/08/02 06:35:05;;;;;;;13.50;5.20;;;16.60;99.90;;;;;;5074904;28;20530;-82
2021/08/02 06:37:32;;;;;;;10.63;4.20;;;16.60;99.90;;;;;;5075930;28;20467;-83
2021/08/02 06:39:59;;;;;;;11.33;5.30;;;16.60;99.90;;;;;;5054062;28;20444;-83
2021/08/02 06:42:27;;;;;;;12.07;4.37;;;16.50;99.90;;;;;;5058536;28;20468;-82
2021/08/02 06:44:54;;;;;;;11.90;4.57;;;16.50;99.90;;;;;;5066061;28;20453;-82
2021/08/02 06:47:21;;;;;;;9.30;4.40;;;16.60;99.90;;;;;;5065500;28;20546;-83
2021/08/02 06:49:48;;;;;;;9.90;4.30;;;16.70;99.90;;;;;;5064205;28;20543;-82
2021/08/02 06:52:15;;;;;;;10.90;4.03;;;16.70;99.90;;;;;;5064012;28;20595;-83
2021/08/02 06:54:42;;;;;;;11.07;4.73;;;16.80;99.90;;;;;;5065801;28;20462;-82
2021/08/02 06:57:08;;;;;;;8.77;3.50;;;16.80;99.90;;;;;;5064011;28;20818;-83
2021/08/02 06:59:37;;;;;;;10.90;3.80;;;16.80;99.90;;;;;;5065293;28;20450;-84
2021/08/02 07:02:04;;;;;;;11.23;4.10;;;16.90;99.90;;;;;;5070436;28;20475;-85
2021/08/02 07:04:31;;;;;;;12.33;4.37;;;16.80;99.90;;;;;;5071894;28;20460;-84
2021/08/02 07:06:57;;;;;;;15.50;4.17;;;16.90;99.90;;;;;;5066107;28;20539;-84
2021/08/02 07:09:24;;;;;;;12.73;4.00;;;17.00;99.90;;;;;;5052391;28;20441;-84
2021/08/02 07:11:51;;;;;;;10.87;4.50;;;17.00;99.90;;;;;;5067325;28;20502;-84
2021/08/02 07:14:18;;;;;;;10.13;3.77;;;17.10;99.90;;;;;;5066959;28;20486;-85
2021/08/02 07:16:46;;;;;;;9.83;3.67;;;17.20;99.90;;;;;;5052411;28;20483;-84
2021/08/02 07:19:13;;;;;;;9.87;4.07;;;17.10;99.90;;;;;;5051901;28;20457;-83
2021/08/02 07:21:40;;;;;;;11.07;4.53;;;17.00;99.90;;;;;;5055161;28;20479;-84
2021/08/02 07:24:07;;;;;;;9.30;3.23;;;17.00;99.90;;;;;;5047255;28;20453;-83
2021/08/02 07:26:33;;;;;;;11.93;3.60;;;17.10;99.90;;;;;;5052280;28;20458;-84
2021/08/02 07:29:02;;;;;;;13.50;3.70;;;17.00;99.90;;;;;;5056225;28;20450;-84
2021/08/02 07:31:29;;;;;;;9.83;3.90;;;16.80;99.90;;;;;;5055565;28;20500;-85
2021/08/02 07:33:57;;;;;;;8.33;3.60;;;16.80;99.90;;;;;;5059548;28;20487;-84
2021/08/02 07:36:24;;;;;;;12.70;4.60;;;16.80;99.90;;;;;;5056320;28;20538;-84
2021/08/02 07:38:51;;;;;;;11.83;3.80;;;16.90;99.90;;;;;;5053428;28;20985;-83
2021/08/02 07:41:19;;;;;;;10.30;3.50;;;16.90;99.90;;;;;;5062713;28;20454;-83
2021/08/02 07:43:46;;;;;;;10.73;3.40;;;16.90;99.90;;;;;;5070294;28;20458;-84
2021/08/02 07:46:13;;;;;;;8.70;3.53;;;16.80;99.90;;;;;;5072923;28;20517;-84
2021/08/02 07:48:40;;;;;;;9.97;4.13;;;16.90;99.90;;;;;;5076410;28;20464;-84
2021/08/02 07:51:08;;;;;;;10.70;4.50;;;17.00;99.90;;;;;;5077202;28;20460;-84
2021/08/02 07:53:35;;;;;;;11.97;4.40;;;17.00;99.90;;;;;;5078075;28;20490;-84
2021/08/02 07:56:02;;;;;;;10.77;3.77;;;17.00;99.90;;;;;;5073686;28;20466;-84
2021/08/02 07:58:29;;;;;;;9.60;3.53;;;17.00;99.90;;;;;;5064487;28;20521;-84
2021/08/02 08:00:56;;;;;;;9.97;3.27;;;17.10;99.90;;;;;;5056571;28;20464;-84
2021/08/02 08:03:23;;;;;;;8.87;3.40;;;17.10;99.90;;;;;;5063009;28;20886;-84
2021/08/02 08:05:49;;;;;;;12.40;3.63;;;17.20;99.90;;;;;;5044755;28;20463;-83
2021/08/02 08:08:20;;;;;;;10.00;3.37;;;17.10;99.90;;;;;;5033531;28;20455;-85
2021/08/02 08:10:47;;;;;;;12.57;4.47;;;17.20;99.90;;;;;;5057170;28;20535;-84
2021/08/02 08:13:14;;;;;;;9.73;3.13;;;17.10;99.90;;;;;;5073371;28;20522;-84
2021/08/02 08:15:41;;;;;;;10.10;3.10;;;17.20;99.90;;;;;;5071910;28;20450;-85
2021/08/02 08:18:08;;;;;;;12.97;3.40;;;17.20;99.90;;;;;;5049638;28;20446;-85
2021/08/02 08:20:35;;;;;;;13.00;3.90;;;17.30;99.90;;;;;;5052103;28;20479;-85
2021/08/02 08:23:02;;;;;;;11.80;4.23;;;17.30;99.90;;;;;;5052484;28;20920;-85
2021/08/02 08:25:30;;;;;;;9.70;2.63;;;17.20;99.90;;;;;;5069611;28;20443;-84
2021/08/02 08:27:56;;;;;;;8.77;2.90;;;17.30;99.90;;;;;;5081125;28;20721;-85
2021/08/02 08:30:23;;;;;;;10.70;2.73;;;17.20;99.90;;;;;;5085187;28;20492;-85
2021/08/02 08:32:50;;;;;;;10.80;2.60;;;17.30;99.90;;;;;;5064227;28;20493;-85
2021/08/02 08:35:17;;;;;;;9.30;2.53;;;17.50;99.90;;;;;;5062310;28;20458;-84
2021/08/02 08:37:44;;;;;;;11.67;3.10;;;17.60;99.90;;;;;;5068250;28;20517;-84
2021/08/02 08:40:15;;;;;;;11.47;2.80;;;17.70;99.90;;;;;;5057887;28;21035;-84
2021/08/02 08:42:44;;;;;;;7.97;2.57;;;17.70;99.90;;;;;;5076547;28;20882;-86
2021/08/02 08:45:11;;;;;;;8.20;3.07;;;17.80;99.90;;;;;;5052908;28;20454;-84
2021/08/02 08:47:38;;;;;;;9.23;3.10;;;17.90;99.90;;;;;;5044190;28;20455;-85
2021/08/02 08:50:07;;;;;;;7.93;2.40;;;17.90;99.90;;;;;;5057873;28;20445;-85
2021/08/02 08:52:35;;;;;;;12.60;2.70;;;17.90;99.90;;;;;;5064282;28;20475;-85
2021/08/02 08:55:06;;;;;;;7.20;2.27;;;17.90;99.90;;;;;;5063698;28;20873;-85
2021/08/02 08:57:33;;;;;;;9.70;2.60;;;18.00;99.90;;;;;;5052063;28;20464;-86
2021/08/02 09:00:01;;;;;;;6.70;2.20;;;18.10;99.90;;;;;;5074695;28;20459;-84
2021/08/02 09:02:30;;;;;;;10.90;2.37;;;18.20;99.90;;;;;;5042948;28;20547;-85
2021/08/02 09:04:58;;;;;;;11.60;3.20;;;18.20;99.90;;;;;;5040972;28;20458;-85
2021/08/02 09:07:36;;;;;;;9.40;2.60;;;18.10;99.90;;;;;;5062617;28;20457;-84
2021/08/02 09:10:04;;;;;;;8.77;2.60;;;18.10;99.90;;;;;;5050964;28;20957;-84
2021/08/02 09:12:32;;;;;;;10.07;2.50;;;18.10;99.90;;;;;;5051294;28;20470;-84
2021/08/02 09:15:04;;;;;;;10.30;2.83;;;18.20;99.90;;;;;;5063982;28;21349;-84
2021/08/02 09:17:33;;;;;;;8.60;2.63;;;18.10;99.90;;;;;;5046417;28;20494;-84
2021/08/02 09:20:00;;;;;;;10.00;2.30;;;18.40;99.90;;;;;;5052684;28;20446;-85
2021/08/02 09:22:32;;;;;;;11.63;2.47;;;18.40;99.90;;;;;;5075360;28;20486;-85
2021/08/02 09:25:16;;;;;;;8.90;3.00;;;18.60;99.90;;;;;;5077570;28;21150;-85
2021/08/02 09:27:44;;;;;;;9.23;2.70;;;18.70;99.90;;;;;;5057945;28;20477;-84
2021/08/02 09:30:21;;;;;;;12.93;3.27;;;18.70;99.90;;;;;;5059389;28;20661;-85
2021/08/02 09:32:54;;;;;;;10.27;3.23;;;18.90;99.90;;;;;;5051747;28;20479;-85
2021/08/02 09:35:29;;;;;;;9.40;3.60;;;19.00;99.90;;;;;;5039431;28;20444;-85
2021/08/02 09:37:56;;;;;;;9.17;3.20;;;19.20;99.90;;;;;;5046467;28;20449;-85
2021/08/02 09:40:23;;;;;;;7.57;2.20;;;19.00;99.90;;;;;;5062233;28;20464;-84
2021/08/02 09:42:57;;;;;;;8.90;2.63;;;19.20;99.90;;;;;;5059162;28;21007;-85
2021/08/02 09:45:26;;;;;;;12.90;2.53;;;19.20;99.90;;;;;;5057198;28;20462;-84
2021/08/02 09:47:53;;;;;;;8.97;2.60;;;19.30;99.90;;;;;;5054777;28;20522;-85
2021/08/02 09:50:31;;;;;;;8.03;2.07;;;19.50;99.90;;;;;;5051630;28;20491;-86
2021/08/02 09:52:58;;;;;;;13.30;2.13;;;19.70;99.90;;;;;;5079497;28;20474;-84
2021/08/02 09:55:25;;;;;;;12.43;2.23;;;19.80;99.90;;;;;;5074503;28;20541;-84
2021/08/02 09:57:53;;;;;;;7.60;2.10;;;19.90;99.90;;;;;;5074735;28;20530;-85
2021/08/02 10:00:21;;;;;;;13.27;2.30;;;20.20;99.90;;;;;;5073830;28;20451;-85
2021/08/02 10:02:50;;;;;;;11.97;2.53;;;20.50;99.90;;;;;;5073669;28;20475;-86
2021/08/02 10:05:18;;;;;;;8.27;2.27;;;20.90;99.90;;;;;;5074720;28;20482;-86
2021/08/02 10:07:47;;;;;;;11.53;2.00;;;21.20;99.90;;;;;;5073154;28;20527;-86
2021/08/02 10:10:15;;;;;;;13.43;2.07;;;21.20;99.90;;;;;;5055079;28;20975;-86
2021/08/02 10:12:44;;;;;;;10.03;2.30;;;21.00;99.90;;;;;;5053535;28;20559;-86
2021/08/02 10:15:14;;;;;;;13.40;2.03;;;21.40;99.90;;;;;;5053422;28;20494;-85
2021/08/02 10:17:46;;;;;;;10.50;2.00;;;21.40;99.90;;;;;;5053192;28;20495;-85
2021/08/02 10:20:25;;;;;;;12.07;2.10;;;21.40;99.90;;;;;;5052876;28;20530;-85
2021/08/02 10:22:52;;;;;;;14.07;1.73;;;21.10;99.90;;;;;;5053781;28;20471;-87
2021/08/02 10:25:31;;;;;;;10.20;2.10;;;21.00;99.90;;;;;;5054267;28;20547;-85
2021/08/02 10:28:06;;;;;;;11.53;3.10;;;20.90;99.90;;;;;;5069001;28;20560;-86
2021/08/02 10:30:33;;;;;;;11.03;2.63;;;20.70;99.90;;;;;;5072672;28;20457;-87
2021/08/02 10:33:00;;;;;;;9.80;2.00;;;20.70;99.90;;;;;;5073276;28;20569;-85
2021/08/02 10:35:40;;;;;;;12.17;1.70;;;20.50;99.90;;;;;;5064416;28;20483;-86
2021/08/02 10:38:09;;;;;;;15.80;1.67;;;20.60;99.90;;;;;;5060304;28;20443;-86
2021/08/02 10:40:51;;;;;;;9.33;1.40;;;21.00;99.90;;;;;;5056061;28;20454;-87
2021/08/02 10:43:32;;;;;;;16.83;1.87;;;21.30;99.90;;;;;;5053740;28;20464;-85
2021/08/02 10:46:00;;;;;;;12.07;1.37;;;21.40;99.90;;;;;;5050967;28;20526;-86
2021/08/02 10:48:29;;;;;;;16.83;1.57;;;21.20;99.90;;;;;;5066346;28;20533;-86
2021/08/02 10:51:09;;;;;;;15.70;1.70;;;21.30;99.90;;;;;;5044888;28;20445;-86
2021/08/02 10:53:36;;;;;;;15.60;2.07;;;21.60;99.90;;;;;;5033436;28;20476;-86
2021/08/02 10:56:03;;;;;;;26.57;1.80;;;21.80;99.90;;;;;;5050860;28;20456;-86
2021/08/02 10:58:32;;;;;;;18.13;1.60;;;21.70;99.90;;;;;;5056487;28;20452;-87
2021/08/02 11:01:01;;;;;;;29.57;1.73;;;21.90;99.90;;;;;;5056295;28;20452;-86
2021/08/02 11:03:32;;;;;;;24.80;1.30;;;22.00;99.90;;;;;;5052952;28;20491;-86
2021/08/02 11:06:06;;;;;;;23.53;1.80;;;22.20;99.90;;;;;;5055987;28;20845;-86
2021/08/02 11:08:35;;;;;;;17.77;1.77;;;22.50;99.90;;;;;;5065867;28;20506;-86
2021/08/02 11:11:04;;;;;;;24.10;1.83;;;22.80;99.90;;;;;;5064007;28;20510;-87
2021/08/02 11:13:32;;;;;;;30.10;1.90;;;22.70;99.90;;;;;;5081207;28;20451;-85
2021/08/02 11:15:59;;;;;;;41.20;2.77;;;23.00;99.90;;;;;;5081591;28;20447;-86
2021/08/02 11:18:26;;;;;;;44.20;2.93;;;22.90;99.90;;;;;;5088174;28;20431;-85
2021/08/02 11:20:54;;;;;;;73.53;39.73;;;22.50;99.90;;;;;;5092089;28;20489;-85
2021/08/02 11:23:34;;;;;;;80.03;62.77;;;22.50;99.90;;;;;;5091290;28;20455;-88
2021/08/02 11:26:06;;;;;;;112.73;101.90;;;22.40;99.90;;;;;;5063058;28;20523;-86
2021/08/02 11:28:38;;;;;;;183.73;170.53;;;22.30;99.90;;;;;;5067742;28;20877;-85
2021/08/02 11:31:05;;;;;;;103.63;93.13;;;22.30;99.90;;;;;;5069711;28;20470;-86
2021/08/02 11:33:36;;;;;;;38.33;3.27;;;22.40;99.90;;;;;;5074408;22;20509;-81
2021/08/02 11:36:04;;;;;;;306.03;287.90;;;22.20;99.90;;;;;;5070965;28;20526;-82
2021/08/02 11:38:46;;;;;;;77.83;61.83;;;22.30;99.90;;;;;;5070464;28;20463;-82
2021/08/02 11:41:48;;;;;;;;;;;;;;;;;;;;;
2021/08/02 11:44:19;;;;;;;404.53;381.13;;;22.20;99.90;;;;;;5095574;22;20588;-81
2021/08/02 11:46:46;;;;;;;282.87;265.57;;;22.00;99.90;;;;;;5097924;28;20465;-83
2021/08/02 11:49:19;;;;;;;224.07;208.93;;;21.90;99.90;;;;;;5083527;28;21001;-83
2021/08/02 11:51:47;;;;;;;138.00;125.67;;;22.20;99.90;;;;;;5081670;28;20495;-83
2021/08/02 11:54:20;;;;;;;526.90;496.07;;;22.80;99.90;;;;;;5079291;28;20582;-82
2021/08/02 11:56:47;;;;;;;636.30;599.00;;;23.60;99.90;;;;;;5077869;28;20459;-82
2021/08/02 11:59:21;;;;;;;571.80;540.17;;;23.10;99.90;;;;;;5092855;28;20515;-81
2021/08/02 12:01:48;;;;;;;980.80;628.33;;;22.90;99.90;;;;;;5093577;28;20446;-81
2021/08/02 12:04:16;;;;;;;246.63;230.10;;;22.50;99.90;;;;;;5094831;28;20547;-81
2021/08/02 12:06:55;;;;;;;518.17;488.90;;;22.40;99.90;;;;;;5094312;28;20480;-83
2021/08/02 12:09:34;;;;;;;276.33;259.83;;;22.10;99.90;;;;;;5093302;28;20499;-84
2021/08/02 12:12:02;;;;;;;302.67;284.97;;;22.00;99.90;;;;;;5089526;28;20537;-82
2021/08/02 12:14:31;;;;;;;908.63;560.30;;;22.10;99.90;;;;;;5093836;28;20488;-84
2021/08/02 12:17:06;;;;;;;507.50;479.33;;;22.10;99.90;;;;;;5093414;28;20503;-83
2021/08/02 12:19:44;;;;;;;733.77;371.97;;;22.30;99.90;;;;;;5094283;28;20754;-82
2021/08/02 12:22:11;;;;;;;932.70;581.83;;;22.50;99.90;;;;;;5092281;28;20446;-82
2021/08/02 12:24:50;;;;;;;610.83;576.37;;;22.50;99.90;;;;;;5092892;28;20781;-83
2021/08/02 12:27:18;;;;;;;807.80;462.60;;;22.20;99.90;;;;;;5093101;28;20456;-83
2021/08/02 12:29:56;;;;;;;1999.90;999.90;;;22.30;99.90;;;;;;5092367;28;20942;-85
2021/08/02 12:32:38;;;;;;;958.13;606.10;;;22.20;99.90;;;;;;5092966;28;20557;-82
2021/08/02 12:35:07;;;;;;;118.30;98.80;;;22.10;99.90;;;;;;5092327;28;20488;-83
2021/08/02 12:37:34;;;;;;;1389.67;717.47;;;22.10;99.90;;;;;;5092986;28;20464;-83
2021/08/02 12:40:04;;;;;;;485.43;457.77;;;22.30;99.90;;;;;;5092305;28;20452;-81
2021/08/02 12:42:43;;;;;;;301.00;282.53;;;22.40;99.90;;;;;;5095980;28;20474;-81
2021/08/02 12:45:11;;;;;;;487.07;457.70;;;22.60;99.90;;;;;;5055056;28;20459;-82
2021/08/02 12:47:45;;;;;;;1999.90;999.90;;;22.50;99.90;;;;;;5065113;28;20988;-81
2021/08/02 13:00:18;;;;;;;1999.90;999.90;;;22.70;99.90;;;;;;5023481;28;20992;-85
2021/08/02 13:02:45;;;;;;;559.70;526.53;;;22.60;99.90;;;;;;4979705;28;20584;-83